createdAt,value
2018-08-07T00:00:03.365Z,23.89
2018-08-07T00:00:07.600Z,23.89
2018-08-07T00:00:11.919Z,23.89
2018-08-07T00:00:16.119Z,23.88
2018-08-07T00:00:20.441Z,23.88
2018-08-07T00:00:24.531Z,23.88
2018-08-07T00:00:28.628Z,23.88
2018-08-07T00:00:32.929Z,23.88
2018-08-07T00:00:37.067Z,23.88
2018-08-07T00:00:41.376Z,23.88
2018-08-07T00:00:45.682Z,23.87
2018-08-07T00:00:49.982Z,23.87
2018-08-07T00:00:54.299Z,23.88
2018-08-07T00:00:58.493Z,23.87
2018-08-07T00:01:02.589Z,23.87
2018-08-07T00:01:06.786Z,23.87
2018-08-07T00:01:10.984Z,23.87
2018-08-07T00:01:15.177Z,23.87
2018-08-07T00:01:19.374Z,23.87
2018-08-07T00:01:23.680Z,23.87
2018-08-07T00:01:27.891Z,23.87
2018-08-07T00:01:32.208Z,23.86
2018-08-07T00:01:36.407Z,23.86
2018-08-07T00:01:40.603Z,23.86
2018-08-07T00:01:44.805Z,23.86
2018-08-07T00:01:48.997Z,23.85
2018-08-07T00:01:53.097Z,23.87
2018-08-07T00:01:57.407Z,23.85
2018-08-07T00:02:01.501Z,23.85
2018-08-07T00:02:05.697Z,23.85
2018-08-07T00:02:09.946Z,23.85
2018-08-07T00:02:14.221Z,23.85
2018-08-07T00:02:18.773Z,23.84
2018-08-07T00:02:23.569Z,23.85
2018-08-07T00:02:27.793Z,23.85
2018-08-07T00:02:31.778Z,23.85
2018-08-07T00:02:36.072Z,23.84
2018-08-07T00:02:40.061Z,23.85
2018-08-07T00:02:43.943Z,23.85
2018-08-07T00:02:48.245Z,23.85
2018-08-07T00:02:52.567Z,23.84
2018-08-07T00:02:56.766Z,23.85
2018-08-07T00:03:00.963Z,23.84
2018-08-07T00:03:05.164Z,23.84
2018-08-07T00:03:09.368Z,23.84
2018-08-07T00:03:13.461Z,23.83
2018-08-07T00:03:17.656Z,23.84
2018-08-07T00:03:21.868Z,23.84
2018-08-07T00:03:26.121Z,23.84
2018-08-07T00:03:30.330Z,23.83
2018-08-07T00:03:34.418Z,23.83
2018-08-07T00:03:38.724Z,23.84
2018-08-07T00:03:43.027Z,23.84
2018-08-07T00:03:47.220Z,23.83
2018-08-07T00:03:51.415Z,23.83
2018-08-07T00:03:55.509Z,23.83
2018-08-07T00:03:59.706Z,23.83
2018-08-07T00:04:03.795Z,23.83
2018-08-07T00:04:08.156Z,23.83
2018-08-07T00:04:12.357Z,23.83
2018-08-07T00:04:16.553Z,23.83
2018-08-07T00:04:20.857Z,23.82
2018-08-07T00:04:25.061Z,23.83
2018-08-07T00:04:28.937Z,23.82
2018-08-07T00:04:33.234Z,23.83
2018-08-07T00:04:37.538Z,23.82
2018-08-07T00:04:41.834Z,23.82
2018-08-07T00:04:46.033Z,23.82
2018-08-07T00:04:50.349Z,23.82
2018-08-07T00:04:54.653Z,23.82
2018-08-07T00:04:58.851Z,23.82
2018-08-07T00:05:02.732Z,23.81
2018-08-07T00:05:06.825Z,23.82
2018-08-07T00:05:10.918Z,23.82
2018-08-07T00:05:15.014Z,23.81
2018-08-07T00:05:19.214Z,23.81
2018-08-07T00:05:23.409Z,23.81
2018-08-07T00:05:27.394Z,23.81
2018-08-07T00:05:31.704Z,23.82
2018-08-07T00:05:36.000Z,23.82
2018-08-07T00:05:40.308Z,23.82
2018-08-07T00:05:44.612Z,23.81
2018-08-07T00:05:48.820Z,23.81
2018-08-07T00:05:53.167Z,23.81
2018-08-07T00:05:57.261Z,23.81
2018-08-07T00:06:01.354Z,23.81
2018-08-07T00:06:05.542Z,23.81
2018-08-07T00:06:09.742Z,23.81
2018-08-07T00:06:14.042Z,23.81
2018-08-07T00:06:18.236Z,23.81
2018-08-07T00:06:22.447Z,23.81
2018-08-07T00:06:26.644Z,23.81
2018-08-07T00:06:30.837Z,23.8
2018-08-07T00:06:35.130Z,23.81
2018-08-07T00:06:39.423Z,23.8
2018-08-07T00:06:43.617Z,23.79
2018-08-07T00:06:47.813Z,23.8
2018-08-07T00:06:52.011Z,23.8
2018-08-07T00:06:56.206Z,23.8
2018-08-07T00:07:00.555Z,23.79
2018-08-07T00:07:04.750Z,23.79
2018-08-07T00:07:09.083Z,23.8
2018-08-07T00:07:13.291Z,23.79
2018-08-07T00:07:17.485Z,23.79
2018-08-07T00:07:21.476Z,23.79
2018-08-07T00:07:25.790Z,23.79
2018-08-07T00:07:30.101Z,23.79
2018-08-07T00:07:34.191Z,23.79
2018-08-07T00:07:38.280Z,23.78
2018-08-07T00:07:42.480Z,23.78
2018-08-07T00:07:46.783Z,23.78
2018-08-07T00:07:51.089Z,23.78
2018-08-07T00:07:55.281Z,23.78
2018-08-07T00:07:59.479Z,23.78
2018-08-07T00:08:03.571Z,23.77
2018-08-07T00:08:07.665Z,23.78
2018-08-07T00:08:11.867Z,23.77
2018-08-07T00:08:15.966Z,23.78
2018-08-07T00:08:20.064Z,23.78
2018-08-07T00:08:24.257Z,23.77
2018-08-07T00:08:28.449Z,23.77
2018-08-07T00:08:32.644Z,23.77
2018-08-07T00:08:36.950Z,23.77
2018-08-07T00:08:41.254Z,23.77
2018-08-07T00:08:45.554Z,23.77
2018-08-07T00:08:49.860Z,23.77
2018-08-07T00:08:54.160Z,23.76
2018-08-07T00:08:58.360Z,23.75
2018-08-07T00:09:02.505Z,23.75
2018-08-07T00:09:06.708Z,23.76
2018-08-07T00:09:10.910Z,23.76
2018-08-07T00:09:15.117Z,23.75
2018-08-07T00:09:19.459Z,23.75
2018-08-07T00:09:23.654Z,23.75
2018-08-07T00:09:27.951Z,23.75
2018-08-07T00:09:32.148Z,23.75
2018-08-07T00:09:36.127Z,23.74
2018-08-07T00:09:40.216Z,23.75
2018-08-07T00:09:44.417Z,23.75
2018-08-07T00:09:48.609Z,23.74
2018-08-07T00:09:52.803Z,23.74
2018-08-07T00:09:56.889Z,23.75
2018-08-07T00:10:01.083Z,23.75
2018-08-07T00:10:05.065Z,23.75
2018-08-07T00:10:08.944Z,23.75
2018-08-07T00:10:13.036Z,23.74
2018-08-07T00:10:17.017Z,23.74
2018-08-07T00:10:21.312Z,23.73
2018-08-07T00:10:25.515Z,23.73
2018-08-07T00:10:29.879Z,23.74
2018-08-07T00:10:34.181Z,23.73
2018-08-07T00:10:38.373Z,23.73
2018-08-07T00:10:42.463Z,23.73
2018-08-07T00:10:46.766Z,23.72
2018-08-07T00:10:51.069Z,23.73
2018-08-07T00:10:55.263Z,23.72
2018-08-07T00:10:59.561Z,23.71
2018-08-07T00:11:03.798Z,23.72
2018-08-07T00:11:08.003Z,23.72
2018-08-07T00:11:12.306Z,23.71
2018-08-07T00:11:16.397Z,23.71
2018-08-07T00:11:20.705Z,23.71
2018-08-07T00:11:24.902Z,23.71
2018-08-07T00:11:28.886Z,23.7
2018-08-07T00:11:33.081Z,23.7
2018-08-07T00:11:37.280Z,23.7
2018-08-07T00:11:41.478Z,23.7
2018-08-07T00:11:45.680Z,23.7
2018-08-07T00:11:49.766Z,23.7
2018-08-07T00:11:54.073Z,23.7
2018-08-07T00:11:58.282Z,23.7
2018-08-07T00:12:02.522Z,23.7
2018-08-07T00:12:06.824Z,23.69
2018-08-07T00:12:11.021Z,23.7
2018-08-07T00:12:15.216Z,23.69
2018-08-07T00:12:19.408Z,23.69
2018-08-07T00:12:23.731Z,23.69
2018-08-07T00:12:27.927Z,23.68
2018-08-07T00:12:32.125Z,23.68
2018-08-07T00:12:36.313Z,23.67
2018-08-07T00:12:40.505Z,23.68
2018-08-07T00:12:44.699Z,23.68
2018-08-07T00:12:48.996Z,23.68
2018-08-07T00:12:53.205Z,23.67
2018-08-07T00:12:57.516Z,23.67
2018-08-07T00:13:01.716Z,23.67
2018-08-07T00:13:05.815Z,23.67
2018-08-07T00:13:09.910Z,23.67
2018-08-07T00:13:14.108Z,23.66
2018-08-07T00:13:18.300Z,23.65
2018-08-07T00:13:22.496Z,23.66
2018-08-07T00:13:26.695Z,23.65
2018-08-07T00:13:30.996Z,23.65
2018-08-07T00:13:35.139Z,23.64
2018-08-07T00:13:39.435Z,23.65
2018-08-07T00:13:43.523Z,23.65
2018-08-07T00:13:47.871Z,23.64
2018-08-07T00:13:52.172Z,23.65
2018-08-07T00:13:56.472Z,23.64
2018-08-07T00:14:00.778Z,23.64
2018-08-07T00:14:04.977Z,23.64
2018-08-07T00:14:09.305Z,23.63
2018-08-07T00:14:13.605Z,23.63
2018-08-07T00:14:17.609Z,23.64
2018-08-07T00:14:21.817Z,23.64
2018-08-07T00:14:26.015Z,23.63
2018-08-07T00:14:30.319Z,23.62
2018-08-07T00:14:34.640Z,23.61
2018-08-07T00:14:38.736Z,23.62
2018-08-07T00:14:42.832Z,23.62
2018-08-07T00:14:46.816Z,23.61
2018-08-07T00:14:51.008Z,23.61
2018-08-07T00:14:55.310Z,23.61
2018-08-07T00:14:59.503Z,23.6
2018-08-07T00:15:03.720Z,23.61
2018-08-07T00:15:07.926Z,23.61
2018-08-07T00:15:12.225Z,23.6
2018-08-07T00:15:16.426Z,23.6
2018-08-07T00:15:20.735Z,23.6
2018-08-07T00:15:24.824Z,23.59
2018-08-07T00:15:29.126Z,23.59
2018-08-07T00:15:33.328Z,23.59
2018-08-07T00:15:37.525Z,23.59
2018-08-07T00:15:41.614Z,23.58
2018-08-07T00:15:45.919Z,23.59
2018-08-07T00:15:50.230Z,23.58
2018-08-07T00:15:54.422Z,23.58
2018-08-07T00:15:58.718Z,23.58
2018-08-07T00:16:02.930Z,23.58
2018-08-07T00:16:07.231Z,23.58
2018-08-07T00:16:11.434Z,23.57
2018-08-07T00:16:15.518Z,23.57
2018-08-07T00:16:19.810Z,23.57
2018-08-07T00:16:24.001Z,23.55
2018-08-07T00:16:28.298Z,23.56
2018-08-07T00:16:32.591Z,23.56
2018-08-07T00:16:36.824Z,23.55
2018-08-07T00:16:41.024Z,23.54
2018-08-07T00:16:45.213Z,23.55
2018-08-07T00:16:49.509Z,23.54
2018-08-07T00:16:53.811Z,23.54
2018-08-07T00:16:57.898Z,23.53
2018-08-07T00:17:02.087Z,23.54
2018-08-07T00:17:06.284Z,23.54
2018-08-07T00:17:10.592Z,23.54
2018-08-07T00:17:14.784Z,23.52
2018-08-07T00:17:19.099Z,23.53
2018-08-07T00:17:23.392Z,23.52
2018-08-07T00:17:27.373Z,23.52
2018-08-07T00:17:31.358Z,23.52
2018-08-07T00:17:35.442Z,23.52
2018-08-07T00:17:39.743Z,23.52
2018-08-07T00:17:43.832Z,23.51
2018-08-07T00:17:48.077Z,23.52
2018-08-07T00:17:52.270Z,23.5
2018-08-07T00:17:56.577Z,23.51
2018-08-07T00:18:00.767Z,23.51
2018-08-07T00:18:04.797Z,23.51
2018-08-07T00:18:08.903Z,23.5
2018-08-07T00:18:13.200Z,23.5
2018-08-07T00:18:17.441Z,23.5
2018-08-07T00:18:21.756Z,23.5
2018-08-07T00:18:25.840Z,23.5
2018-08-07T00:18:30.043Z,23.49
2018-08-07T00:18:34.028Z,23.5
2018-08-07T00:18:38.126Z,23.49
2018-08-07T00:18:42.320Z,23.49
2018-08-07T00:18:46.519Z,23.48
2018-08-07T00:18:50.708Z,23.48
2018-08-07T00:18:54.905Z,23.47
2018-08-07T00:18:59.096Z,23.48
2018-08-07T00:19:03.342Z,23.48
2018-08-07T00:19:07.644Z,23.48
2018-08-07T00:19:11.945Z,23.48
2018-08-07T00:19:16.037Z,23.47
2018-08-07T00:19:20.233Z,23.47
2018-08-07T00:19:24.422Z,23.47
2018-08-07T00:19:28.721Z,23.47
2018-08-07T00:19:32.808Z,23.46
2018-08-07T00:19:37.106Z,23.46
2018-08-07T00:19:41.401Z,23.47
2018-08-07T00:19:45.592Z,23.46
2018-08-07T00:19:49.889Z,23.46
2018-08-07T00:19:54.186Z,23.46
2018-08-07T00:19:58.376Z,23.45
2018-08-07T00:20:02.467Z,23.45
2018-08-07T00:20:06.663Z,23.45
2018-08-07T00:20:10.858Z,23.46
2018-08-07T00:20:15.062Z,23.46
2018-08-07T00:20:19.155Z,23.45
2018-08-07T00:20:23.394Z,23.45
2018-08-07T00:20:27.696Z,23.44
2018-08-07T00:20:31.794Z,23.45
2018-08-07T00:20:35.989Z,23.44
2018-08-07T00:20:40.186Z,23.44
2018-08-07T00:20:44.491Z,23.43
2018-08-07T00:20:48.584Z,23.44
2018-08-07T00:20:52.783Z,23.44
2018-08-07T00:20:56.973Z,23.44
2018-08-07T00:21:01.273Z,23.43
2018-08-07T00:21:05.359Z,23.43
2018-08-07T00:21:09.665Z,23.43
2018-08-07T00:21:13.962Z,23.43
2018-08-07T00:21:18.045Z,23.43
2018-08-07T00:21:22.346Z,23.43
2018-08-07T00:21:26.554Z,23.43
2018-08-07T00:21:30.849Z,23.43
2018-08-07T00:21:35.151Z,23.43
2018-08-07T00:21:39.244Z,23.43
2018-08-07T00:21:43.541Z,23.42
2018-08-07T00:21:47.752Z,23.42
2018-08-07T00:21:52.048Z,23.42
2018-08-07T00:21:56.028Z,23.43
2018-08-07T00:22:00.242Z,23.42
2018-08-07T00:22:04.446Z,23.42
2018-08-07T00:22:08.905Z,23.42
2018-08-07T00:22:13.106Z,23.42
2018-08-07T00:22:17.413Z,23.42
2018-08-07T00:22:21.714Z,23.42
2018-08-07T00:22:26.031Z,23.42
2018-08-07T00:22:30.241Z,23.42
2018-08-07T00:22:34.326Z,23.42
2018-08-07T00:22:38.202Z,23.42
2018-08-07T00:22:42.282Z,23.42
2018-08-07T00:22:46.579Z,23.42
2018-08-07T00:22:50.890Z,23.42
2018-08-07T00:22:55.190Z,23.41
2018-08-07T00:22:59.394Z,23.42
2018-08-07T00:23:03.479Z,23.42
2018-08-07T00:23:07.775Z,23.42
2018-08-07T00:23:11.976Z,23.42
2018-08-07T00:23:16.188Z,23.42
2018-08-07T00:23:20.504Z,23.42
2018-08-07T00:23:24.709Z,23.41
2018-08-07T00:23:29.007Z,23.42
2018-08-07T00:23:33.207Z,23.42
2018-08-07T00:23:37.401Z,23.42
2018-08-07T00:23:41.590Z,23.42
2018-08-07T00:23:45.783Z,23.41
2018-08-07T00:23:49.987Z,23.41
2018-08-07T00:23:54.285Z,23.4
2018-08-07T00:23:58.478Z,23.41
2018-08-07T00:24:02.619Z,23.42
2018-08-07T00:24:06.836Z,23.42
2018-08-07T00:24:11.036Z,23.42
2018-08-07T00:24:15.124Z,23.41
2018-08-07T00:24:19.317Z,23.42
2018-08-07T00:24:23.618Z,23.42
2018-08-07T00:24:27.817Z,23.42
2018-08-07T00:24:32.115Z,23.41
2018-08-07T00:24:36.199Z,23.41
2018-08-07T00:24:40.397Z,23.42
2018-08-07T00:24:44.590Z,23.42
2018-08-07T00:24:48.895Z,23.42
2018-08-07T00:24:53.209Z,23.42
2018-08-07T00:24:57.521Z,23.42
2018-08-07T00:25:01.828Z,23.41
2018-08-07T00:25:05.811Z,23.42
2018-08-07T00:25:10.007Z,23.41
2018-08-07T00:25:14.209Z,23.41
2018-08-07T00:25:18.512Z,23.41
2018-08-07T00:25:22.708Z,23.42
2018-08-07T00:25:27.010Z,23.42
2018-08-07T00:25:31.205Z,23.42
2018-08-07T00:25:35.291Z,23.42
2018-08-07T00:25:39.488Z,23.41
2018-08-07T00:25:43.465Z,23.42
2018-08-07T00:25:47.660Z,23.41
2018-08-07T00:25:51.855Z,23.41
2018-08-07T00:25:56.157Z,23.41
2018-08-07T00:26:00.460Z,23.41
2018-08-07T00:26:04.920Z,23.41
2018-08-07T00:26:08.899Z,23.41
2018-08-07T00:26:13.199Z,23.41
2018-08-07T00:26:17.186Z,23.42
2018-08-07T00:26:21.384Z,23.41
2018-08-07T00:26:25.684Z,23.41
2018-08-07T00:26:30.010Z,23.41
2018-08-07T00:26:34.006Z,23.41
2018-08-07T00:26:38.208Z,23.4
2018-08-07T00:26:42.295Z,23.41
2018-08-07T00:26:46.487Z,23.4
2018-08-07T00:26:50.578Z,23.4
2018-08-07T00:26:54.666Z,23.4
2018-08-07T00:26:58.751Z,23.4
2018-08-07T00:27:03.160Z,23.41
2018-08-07T00:27:07.353Z,23.4
2018-08-07T00:27:11.343Z,23.4
2018-08-07T00:27:15.653Z,23.4
2018-08-07T00:27:19.742Z,23.4
2018-08-07T00:27:24.044Z,23.39
2018-08-07T00:27:28.342Z,23.39
2018-08-07T00:27:32.632Z,23.39
2018-08-07T00:27:36.819Z,23.4
2018-08-07T00:27:41.022Z,23.39
2018-08-07T00:27:45.109Z,23.39
2018-08-07T00:27:49.410Z,23.39
2018-08-07T00:27:53.717Z,23.39
2018-08-07T00:27:57.913Z,23.39
2018-08-07T00:28:02.255Z,23.38
2018-08-07T00:28:06.236Z,23.39
2018-08-07T00:28:10.216Z,23.38
2018-08-07T00:28:14.417Z,23.39
2018-08-07T00:28:18.718Z,23.38
2018-08-07T00:28:23.019Z,23.38
2018-08-07T00:28:27.212Z,23.38
2018-08-07T00:28:31.404Z,23.38
2018-08-07T00:28:35.384Z,23.37
2018-08-07T00:28:39.576Z,23.38
2018-08-07T00:28:43.931Z,23.38
2018-08-07T00:28:47.916Z,23.37
2018-08-07T00:28:52.220Z,23.38
2018-08-07T00:28:56.526Z,23.38
2018-08-07T00:29:00.726Z,23.37
2018-08-07T00:29:04.928Z,23.37
2018-08-07T00:29:09.139Z,23.36
2018-08-07T00:29:13.448Z,23.37
2018-08-07T00:29:17.533Z,23.36
2018-08-07T00:29:21.733Z,23.37
2018-08-07T00:29:25.720Z,23.36
2018-08-07T00:29:29.919Z,23.36
2018-08-07T00:29:34.219Z,23.36
2018-08-07T00:29:38.519Z,23.36
2018-08-07T00:29:42.710Z,23.36
2018-08-07T00:29:47.021Z,23.36
2018-08-07T00:29:51.110Z,23.35
2018-08-07T00:29:55.313Z,23.36
2018-08-07T00:29:59.516Z,23.35
2018-08-07T00:30:03.495Z,23.35
2018-08-07T00:30:07.795Z,23.36
2018-08-07T00:30:11.989Z,23.35
2018-08-07T00:30:16.309Z,23.34
2018-08-07T00:30:20.608Z,23.34
2018-08-07T00:30:24.708Z,23.34
2018-08-07T00:30:29.018Z,23.34
2018-08-07T00:30:33.215Z,23.33
2018-08-07T00:30:37.201Z,23.34
2018-08-07T00:30:41.510Z,23.33
2018-08-07T00:30:45.818Z,23.34
2018-08-07T00:30:50.117Z,23.34
2018-08-07T00:30:54.311Z,23.33
2018-08-07T00:30:58.506Z,23.33
2018-08-07T00:31:02.594Z,23.33
2018-08-07T00:31:06.683Z,23.33
2018-08-07T00:31:10.876Z,23.33
2018-08-07T00:31:14.964Z,23.33
2018-08-07T00:31:19.277Z,23.32
2018-08-07T00:31:23.480Z,23.32
2018-08-07T00:31:27.575Z,23.33
2018-08-07T00:31:31.767Z,23.32
2018-08-07T00:31:35.969Z,23.32
2018-08-07T00:31:40.168Z,23.32
2018-08-07T00:31:44.369Z,23.32
2018-08-07T00:31:48.574Z,23.31
2018-08-07T00:31:52.875Z,23.31
2018-08-07T00:31:56.855Z,23.31
2018-08-07T00:32:01.064Z,23.31
2018-08-07T00:32:05.307Z,23.31
2018-08-07T00:32:09.507Z,23.31
2018-08-07T00:32:13.593Z,23.31
2018-08-07T00:32:17.682Z,23.3
2018-08-07T00:32:21.905Z,23.3
2018-08-07T00:32:26.104Z,23.3
2018-08-07T00:32:30.344Z,23.3
2018-08-07T00:32:34.538Z,23.3
2018-08-07T00:32:38.620Z,23.29
2018-08-07T00:32:42.930Z,23.3
2018-08-07T00:32:47.023Z,23.29
2018-08-07T00:32:51.322Z,23.29
2018-08-07T00:32:55.614Z,23.29
2018-08-07T00:32:59.912Z,23.3
2018-08-07T00:33:04.106Z,23.28
2018-08-07T00:33:08.300Z,23.28
2018-08-07T00:33:12.606Z,23.29
2018-08-07T00:33:16.690Z,23.29
2018-08-07T00:33:20.888Z,23.28
2018-08-07T00:33:25.190Z,23.29
2018-08-07T00:33:29.279Z,23.28
2018-08-07T00:33:33.598Z,23.29
2018-08-07T00:33:37.788Z,23.28
2018-08-07T00:33:42.093Z,23.28
2018-08-07T00:33:46.280Z,23.27
2018-08-07T00:33:50.260Z,23.27
2018-08-07T00:33:54.248Z,23.28
2018-08-07T00:33:58.446Z,23.28
2018-08-07T00:34:02.584Z,23.28
2018-08-07T00:34:06.777Z,23.28
2018-08-07T00:34:10.977Z,23.28
2018-08-07T00:34:15.280Z,23.28
2018-08-07T00:34:19.365Z,23.27
2018-08-07T00:34:23.559Z,23.27
2018-08-07T00:34:27.885Z,23.27
2018-08-07T00:34:32.077Z,23.27
2018-08-07T00:34:36.179Z,23.27
2018-08-07T00:34:40.163Z,23.27
2018-08-07T00:34:44.509Z,23.26
2018-08-07T00:34:48.701Z,23.27
2018-08-07T00:34:53.023Z,23.27
2018-08-07T00:34:57.363Z,23.26
2018-08-07T00:35:01.663Z,23.26
2018-08-07T00:35:05.751Z,23.27
2018-08-07T00:35:10.053Z,23.26
2018-08-07T00:35:14.245Z,23.26
2018-08-07T00:35:18.440Z,23.26
2018-08-07T00:35:22.630Z,23.26
2018-08-07T00:35:26.831Z,23.26
2018-08-07T00:35:31.023Z,23.26
2018-08-07T00:35:35.222Z,23.25
2018-08-07T00:35:39.306Z,23.25
2018-08-07T00:35:43.510Z,23.25
2018-08-07T00:35:47.700Z,23.25
2018-08-07T00:35:51.788Z,23.24
2018-08-07T00:35:55.981Z,23.25
2018-08-07T00:36:00.184Z,23.25
2018-08-07T00:36:04.170Z,23.24
2018-08-07T00:36:08.471Z,23.24
2018-08-07T00:36:12.565Z,23.24
2018-08-07T00:36:16.912Z,23.24
2018-08-07T00:36:20.997Z,23.24
2018-08-07T00:36:25.196Z,23.24
2018-08-07T00:36:29.388Z,23.23
2018-08-07T00:36:33.696Z,23.24
2018-08-07T00:36:38.003Z,23.24
2018-08-07T00:36:42.193Z,23.24
2018-08-07T00:36:46.383Z,23.23
2018-08-07T00:36:50.680Z,23.23
2018-08-07T00:36:54.769Z,23.24
2018-08-07T00:36:58.857Z,23.24
2018-08-07T00:37:03.049Z,23.23
2018-08-07T00:37:07.401Z,23.23
2018-08-07T00:37:11.503Z,23.23
2018-08-07T00:37:15.600Z,23.23
2018-08-07T00:37:19.897Z,23.24
2018-08-07T00:37:24.132Z,23.23
2018-08-07T00:37:28.222Z,23.23
2018-08-07T00:37:32.527Z,23.24
2018-08-07T00:37:36.833Z,23.24
2018-08-07T00:37:41.415Z,23.23
2018-08-07T00:37:46.111Z,23.24
2018-08-07T00:37:50.627Z,23.24
2018-08-07T00:37:55.481Z,23.23
2018-08-07T00:38:00.043Z,23.23
2018-08-07T00:38:04.240Z,23.23
2018-08-07T00:38:08.439Z,23.23
2018-08-07T00:38:12.642Z,23.23
2018-08-07T00:38:16.839Z,23.23
2018-08-07T00:38:21.044Z,23.23
2018-08-07T00:38:25.238Z,23.23
2018-08-07T00:38:29.548Z,23.23
2018-08-07T00:38:33.642Z,23.23
2018-08-07T00:38:37.941Z,23.23
2018-08-07T00:38:42.139Z,23.22
2018-08-07T00:38:46.335Z,23.22
2018-08-07T00:38:50.641Z,23.23
2018-08-07T00:38:54.729Z,23.22
2018-08-07T00:38:58.926Z,23.22
2018-08-07T00:39:03.031Z,23.21
2018-08-07T00:39:07.335Z,23.22
2018-08-07T00:39:11.651Z,23.22
2018-08-07T00:39:15.954Z,23.22
2018-08-07T00:39:20.266Z,23.22
2018-08-07T00:39:24.572Z,23.22
2018-08-07T00:39:28.557Z,23.22
2018-08-07T00:39:32.765Z,23.2
2018-08-07T00:39:36.961Z,23.21
2018-08-07T00:39:41.264Z,23.22
2018-08-07T00:39:45.458Z,23.21
2018-08-07T00:39:49.704Z,23.22
2018-08-07T00:39:54.016Z,23.21
2018-08-07T00:39:58.318Z,23.21
2018-08-07T00:40:02.416Z,23.21
2018-08-07T00:40:06.506Z,23.21
2018-08-07T00:40:10.711Z,23.21
2018-08-07T00:40:14.913Z,23.22
2018-08-07T00:40:19.250Z,23.2
2018-08-07T00:40:23.558Z,23.2
2018-08-07T00:40:27.759Z,23.21
2018-08-07T00:40:31.954Z,23.21
2018-08-07T00:40:36.255Z,23.2
2018-08-07T00:40:40.340Z,23.2
2018-08-07T00:40:44.537Z,23.2
2018-08-07T00:40:48.742Z,23.2
2018-08-07T00:40:52.934Z,23.2
2018-08-07T00:40:57.128Z,23.2
2018-08-07T00:41:01.222Z,23.19
2018-08-07T00:41:05.572Z,23.2
2018-08-07T00:41:09.666Z,23.19
2018-08-07T00:41:13.856Z,23.2
2018-08-07T00:41:17.944Z,23.2
2018-08-07T00:41:21.930Z,23.19
2018-08-07T00:41:26.023Z,23.2
2018-08-07T00:41:30.113Z,23.2
2018-08-07T00:41:34.316Z,23.2
2018-08-07T00:41:38.519Z,23.19
2018-08-07T00:41:42.719Z,23.2
2018-08-07T00:41:46.810Z,23.2
2018-08-07T00:41:51.008Z,23.19
2018-08-07T00:41:55.102Z,23.21
2018-08-07T00:41:59.085Z,23.2
2018-08-07T00:42:03.181Z,23.2
2018-08-07T00:42:07.384Z,23.19
2018-08-07T00:42:11.689Z,23.2
2018-08-07T00:42:15.787Z,23.19
2018-08-07T00:42:20.007Z,23.2
2018-08-07T00:42:24.306Z,23.2
2018-08-07T00:42:28.291Z,23.2
2018-08-07T00:42:32.494Z,23.2
2018-08-07T00:42:36.585Z,23.2
2018-08-07T00:42:40.780Z,23.2
2018-08-07T00:42:45.108Z,23.2
2018-08-07T00:42:49.420Z,23.2
2018-08-07T00:42:53.614Z,23.19
2018-08-07T00:42:57.708Z,23.2
2018-08-07T00:43:01.917Z,23.2
2018-08-07T00:43:06.325Z,23.19
2018-08-07T00:43:10.416Z,23.2
2018-08-07T00:43:14.723Z,23.19
2018-08-07T00:43:19.024Z,23.19
2018-08-07T00:43:23.244Z,23.19
2018-08-07T00:43:27.443Z,23.2
2018-08-07T00:43:31.528Z,23.2
2018-08-07T00:43:35.636Z,23.19
2018-08-07T00:43:39.938Z,23.2
2018-08-07T00:43:44.028Z,23.2
2018-08-07T00:43:48.226Z,23.19
2018-08-07T00:43:52.524Z,23.19
2018-08-07T00:43:56.823Z,23.19
2018-08-07T00:44:00.908Z,23.2
2018-08-07T00:44:05.003Z,23.19
2018-08-07T00:44:09.198Z,23.2
2018-08-07T00:44:13.496Z,23.2
2018-08-07T00:44:17.803Z,23.19
2018-08-07T00:44:22.103Z,23.2
2018-08-07T00:44:26.186Z,23.2
2018-08-07T00:44:30.165Z,23.2
2018-08-07T00:44:34.467Z,23.19
2018-08-07T00:44:38.551Z,23.19
2018-08-07T00:44:42.750Z,23.2
2018-08-07T00:44:46.842Z,23.19
2018-08-07T00:44:50.822Z,23.19
2018-08-07T00:44:54.940Z,23.2
2018-08-07T00:44:59.032Z,23.19
2018-08-07T00:45:03.219Z,23.2
2018-08-07T00:45:07.412Z,23.2
2018-08-07T00:45:11.608Z,23.2
2018-08-07T00:45:15.809Z,23.2
2018-08-07T00:45:20.034Z,23.2
2018-08-07T00:45:24.238Z,23.19
2018-08-07T00:45:28.434Z,23.19
2018-08-07T00:45:32.734Z,23.2
2018-08-07T00:45:36.827Z,23.2
2018-08-07T00:45:40.923Z,23.2
2018-08-07T00:45:45.136Z,23.2
2018-08-07T00:45:49.330Z,23.19
2018-08-07T00:45:53.637Z,23.19
2018-08-07T00:45:57.833Z,23.2
2018-08-07T00:46:02.121Z,23.19
2018-08-07T00:46:06.108Z,23.19
2018-08-07T00:46:10.197Z,23.2
2018-08-07T00:46:14.391Z,23.19
2018-08-07T00:46:18.691Z,23.19
2018-08-07T00:46:22.991Z,23.19
2018-08-07T00:46:27.194Z,23.19
2018-08-07T00:46:31.394Z,23.19
2018-08-07T00:46:35.588Z,23.18
2018-08-07T00:46:39.567Z,23.19
2018-08-07T00:46:43.869Z,23.19
2018-08-07T00:46:48.178Z,23.19
2018-08-07T00:46:52.050Z,23.19
2018-08-07T00:46:56.141Z,23.19
2018-08-07T00:47:00.445Z,23.19
2018-08-07T00:47:04.643Z,23.2
2018-08-07T00:47:08.837Z,23.2
2018-08-07T00:47:13.038Z,23.19
2018-08-07T00:47:17.131Z,23.19
2018-08-07T00:47:21.430Z,23.19
2018-08-07T00:47:25.644Z,23.19
2018-08-07T00:47:29.941Z,23.19
2018-08-07T00:47:34.127Z,23.19
2018-08-07T00:47:38.313Z,23.18
2018-08-07T00:47:42.504Z,23.19
2018-08-07T00:47:46.817Z,23.18
2018-08-07T00:47:50.909Z,23.19
2018-08-07T00:47:55.104Z,23.19
2018-08-07T00:47:59.304Z,23.18
2018-08-07T00:48:03.507Z,23.18
2018-08-07T00:48:07.808Z,23.18
2018-08-07T00:48:12.106Z,23.18
2018-08-07T00:48:16.192Z,23.19
2018-08-07T00:48:20.484Z,23.19
2018-08-07T00:48:24.685Z,23.18
2018-08-07T00:48:28.878Z,23.18
2018-08-07T00:48:33.069Z,23.19
2018-08-07T00:48:37.261Z,23.18
2018-08-07T00:48:41.561Z,23.17
2018-08-07T00:48:45.766Z,23.18
2018-08-07T00:48:49.956Z,23.18
2018-08-07T00:48:54.259Z,23.18
2018-08-07T00:48:58.561Z,23.18
2018-08-07T00:49:02.643Z,23.17
2018-08-07T00:49:06.834Z,23.18
2018-08-07T00:49:10.818Z,23.17
2018-08-07T00:49:15.021Z,23.18
2018-08-07T00:49:19.327Z,23.17
2018-08-07T00:49:23.527Z,23.18
2018-08-07T00:49:27.406Z,23.17
2018-08-07T00:49:31.496Z,23.18
2018-08-07T00:49:35.692Z,23.18
2018-08-07T00:49:39.883Z,23.18
2018-08-07T00:49:44.138Z,23.17
2018-08-07T00:49:48.434Z,23.17
2018-08-07T00:49:52.308Z,23.17
2018-08-07T00:49:56.502Z,23.17
2018-08-07T00:50:00.599Z,23.17
2018-08-07T00:50:04.869Z,23.17
2018-08-07T00:50:09.379Z,23.16
2018-08-07T00:50:13.564Z,23.17
2018-08-07T00:50:17.765Z,23.16
2018-08-07T00:50:21.966Z,23.16
2018-08-07T00:50:26.055Z,23.16
2018-08-07T00:50:30.366Z,23.16
2018-08-07T00:50:34.568Z,23.16
2018-08-07T00:50:38.768Z,23.16
2018-08-07T00:50:42.968Z,23.16
2018-08-07T00:50:47.280Z,23.16
2018-08-07T00:50:51.585Z,23.16
2018-08-07T00:50:55.895Z,23.15
2018-08-07T00:50:59.980Z,23.15
2018-08-07T00:51:04.168Z,23.15
2018-08-07T00:51:08.358Z,23.15
2018-08-07T00:51:12.660Z,23.15
2018-08-07T00:51:16.862Z,23.14
2018-08-07T00:51:21.058Z,23.15
2018-08-07T00:51:25.261Z,23.15
2018-08-07T00:51:29.560Z,23.14
2018-08-07T00:51:33.645Z,23.15
2018-08-07T00:51:37.994Z,23.14
2018-08-07T00:51:42.194Z,23.14
2018-08-07T00:51:46.395Z,23.14
2018-08-07T00:51:50.595Z,23.14
2018-08-07T00:51:54.468Z,23.13
2018-08-07T00:51:58.662Z,23.13
2018-08-07T00:52:02.862Z,23.13
2018-08-07T00:52:07.176Z,23.13
2018-08-07T00:52:11.384Z,23.14
2018-08-07T00:52:15.581Z,23.14
2018-08-07T00:52:19.888Z,23.13
2018-08-07T00:52:24.082Z,23.13
2018-08-07T00:52:28.381Z,23.13
2018-08-07T00:52:32.577Z,23.13
2018-08-07T00:52:36.559Z,23.13
2018-08-07T00:52:40.868Z,23.13
2018-08-07T00:52:44.954Z,23.13
2018-08-07T00:52:49.157Z,23.13
2018-08-07T00:52:53.372Z,23.12
2018-08-07T00:52:57.570Z,23.12
2018-08-07T00:53:01.555Z,23.12
2018-08-07T00:53:05.905Z,23.12
2018-08-07T00:53:10.224Z,23.12
2018-08-07T00:53:14.313Z,23.11
2018-08-07T00:53:18.625Z,23.12
2018-08-07T00:53:22.876Z,23.11
2018-08-07T00:53:26.959Z,23.11
2018-08-07T00:53:31.049Z,23.11
2018-08-07T00:53:35.354Z,23.11
2018-08-07T00:53:39.653Z,23.11
2018-08-07T00:53:43.844Z,23.12
2018-08-07T00:53:48.047Z,23.12
2018-08-07T00:53:52.135Z,23.12
2018-08-07T00:53:56.333Z,23.11
2018-08-07T00:54:00.318Z,23.11
2018-08-07T00:54:04.740Z,23.11
2018-08-07T00:54:09.037Z,23.11
2018-08-07T00:54:13.339Z,23.12
2018-08-07T00:54:17.636Z,23.11
2018-08-07T00:54:21.880Z,23.11